Terminal Aerodrome Forecast
Issued by NWS Greer, SC

Home | Current Version | Previous Version | Text Only | Print | Product List | Glossary On
Versions: 1 2 3 4 5 6 7 8 9 10 11 12 13 14
000
FTUS42 KGSP 240526
TAFAVL
TAF
KAVL 240526Z 2406/2506 13003KT P6SM SCT050
      TEMPO 2409/2412 4SM BR BKN008 OVC019
     FM241200 15003KT P6SM BKN020
     FM241500 17003KT P6SM BKN045
     FM250500 00000KT 4SM BR SCT050=

USA.gov is the U.S. government's official web portal to all federal, state and local government web resources and services.